Ocean Shores, Washington
Current Conditions -  °F | °C
As of 5:53 PM on Saturday 25 Oct 2014 (Local Time) from KHQM Reporting Station
Light Rain Light Rain  
Wind Chill: 54°   Ceiling: 1800
Heat Index: 54°   Visibility: 4mi
Dew Point: 50°   Wind: 30mph
Humidity: 86%   Direction: 270°W
Pressure: 29.35"   Gusts: 40mph
Location:  46.97°N, 124.16°W
Report Text: KHQM 260053Z AUTO 27026G35KT 4SM -RA BR FEW013 BKN018 OVC032 12/10 A2935 RMK AO2 PK WND 26044/0006 PRESRR SLP941 P0011 T01220100
Loading
Personal Weather Stations






























Interactive Weather Map
Tropical Storm Tracking
New forecast layout! Learn more

10-Day Weather Forecast

Advertisements
Track Severe Weather on mobile